sensor_id;sensor_type;location;lat;lon;timestamp;pressure;altitude;pressure_sealevel;temperature;humidity
74633;BME280;63139;52.018;8.552;2024-02-21T00:01:46;101084.91;;;9.52;100.00
74633;BME280;63139;52.018;8.552;2024-02-21T00:04:14;101079.34;;;9.55;100.00
74633;BME280;63139;52.018;8.552;2024-02-21T00:06:44;101086.28;;;9.56;100.00
74633;BME280;63139;52.018;8.552;2024-02-21T00:09:12;101071.22;;;9.56;100.00
74633;BME280;63139;52.018;8.552;2024-02-21T00:11:39;101086.44;;;9.54;100.00
74633;BME280;63139;52.018;8.552;2024-02-21T00:14:07;101082.94;;;9.54;100.00
74633;BME280;63139;52.018;8.552;2024-02-21T00:16:35;101071.41;;;9.55;100.00
74633;BME280;63139;52.018;8.552;2024-02-21T00:19:03;101076.38;;;9.58;100.00
74633;BME280;63139;52.018;8.552;2024-02-21T00:21:31;101079.75;;;9.50;100.00
74633;BME280;63139;52.018;8.552;2024-02-21T00:24:00;101069.50;;;9.47;100.00
74633;BME280;63139;52.018;8.552;2024-02-21T00:26:29;101070.84;;;9.51;100.00
74633;BME280;63139;52.018;8.552;2024-02-21T00:28:56;101073.22;;;9.54;100.00
74633;BME280;63139;52.018;8.552;2024-02-21T00:31:24;101073.34;;;9.53;100.00
74633;BME280;63139;52.018;8.552;2024-02-21T00:33:52;101063.75;;;9.52;100.00
74633;BME280;63139;52.018;8.552;2024-02-21T00:36:20;101070.72;;;9.53;100.00
74633;BME280;63139;52.018;8.552;2024-02-21T00:38:48;101064.59;;;9.52;100.00
74633;BME280;63139;52.018;8.552;2024-02-21T00:41:17;101059.16;;;9.54;100.00
74633;BME280;63139;52.018;8.552;2024-02-21T00:43:45;101045.81;;;9.55;100.00
74633;BME280;63139;52.018;8.552;2024-02-21T00:46:15;101035.91;;;9.57;100.00
74633;BME280;63139;52.018;8.552;2024-02-21T00:48:43;101036.88;;;9.56;100.00
74633;BME280;63139;52.018;8.552;2024-02-21T00:51:11;101026.47;;;9.55;100.00
74633;BME280;63139;52.018;8.552;2024-02-21T00:53:39;101031.59;;;9.56;100.00
74633;BME280;63139;52.018;8.552;2024-02-21T00:56:07;101041.50;;;9.54;100.00
74633;BME280;63139;52.018;8.552;2024-02-21T00:58:36;101035.38;;;9.54;100.00
74633;BME280;63139;52.018;8.552;2024-02-21T01:01:05;101022.03;;;9.55;100.00
74633;BME280;63139;52.018;8.552;2024-02-21T01:03:32;101023.97;;;9.53;100.00
74633;BME280;63139;52.018;8.552;2024-02-21T01:06:00;101001.53;;;9.57;100.00
74633;BME280;63139;52.018;8.552;2024-02-21T01:08:28;101008.47;;;9.58;100.00
74633;BME280;63139;52.018;8.552;2024-02-21T01:10:56;101012.28;;;9.56;100.00
74633;BME280;63139;52.018;8.552;2024-02-21T01:13:24;101013.09;;;9.56;100.00
74633;BME280;63139;52.018;8.552;2024-02-21T01:15:54;101020.34;;;9.54;100.00
74633;BME280;63139;52.018;8.552;2024-02-21T01:18:21;101032.59;;;9.55;100.00
74633;BME280;63139;52.018;8.552;2024-02-21T01:20:49;101027.31;;;9.55;100.00
74633;BME280;63139;52.018;8.552;2024-02-21T01:23:17;101023.00;;;9.54;100.00
74633;BME280;63139;52.018;8.552;2024-02-21T01:25:45;101011.13;;;9.58;100.00
74633;BME280;63139;52.018;8.552;2024-02-21T01:28:13;101016.97;;;9.62;100.00
74633;BME280;63139;52.018;8.552;2024-02-21T01:30:42;101009.03;;;9.62;100.00
74633;BME280;63139;52.018;8.552;2024-02-21T01:33:11;101011.69;;;9.62;100.00
74633;BME280;63139;52.018;8.552;2024-02-21T01:35:39;101009.69;;;9.64;100.00
74633;BME280;63139;52.018;8.552;2024-02-21T01:38:08;101004.13;;;9.67;100.00
74633;BME280;63139;52.018;8.552;2024-02-21T01:40:37;101004.81;;;9.69;100.00
74633;BME280;63139;52.018;8.552;2024-02-21T01:43:15;101013.88;;;9.66;100.00
74633;BME280;63139;52.018;8.552;2024-02-21T01:45:45;100999.13;;;9.64;100.00
74633;BME280;63139;52.018;8.552;2024-02-21T01:48:16;100995.34;;;9.66;100.00
74633;BME280;63139;52.018;8.552;2024-02-21T01:50:44;100992.72;;;9.66;100.00
74633;BME280;63139;52.018;8.552;2024-02-21T01:53:13;100993.69;;;9.65;100.00
74633;BME280;63139;52.018;8.552;2024-02-21T01:55:44;100984.63;;;9.68;100.00
74633;BME280;63139;52.018;8.552;2024-02-21T01:58:13;100984.63;;;9.68;100.00
74633;BME280;63139;52.018;8.552;2024-02-21T02:00:42;100984.94;;;9.65;100.00
74633;BME280;63139;52.018;8.552;2024-02-21T02:03:11;100981.63;;;9.63;100.00
74633;BME280;63139;52.018;8.552;2024-02-21T02:05:45;100977.31;;;9.62;100.00
74633;BME280;63139;52.018;8.552;2024-02-21T02:08:14;100973.69;;;9.63;100.00
74633;BME280;63139;52.018;8.552;2024-02-21T02:10:42;100974.50;;;9.63;100.00
74633;BME280;63139;52.018;8.552;2024-02-21T02:13:11;100963.91;;;9.63;100.00
74633;BME280;63139;52.018;8.552;2024-02-21T02:15:40;100951.72;;;9.62;100.00
74633;BME280;63139;52.018;8.552;2024-02-21T02:18:09;100953.19;;;9.65;100.00
74633;BME280;63139;52.018;8.552;2024-02-21T02:20:38;100956.81;;;9.64;100.00
74633;BME280;63139;52.018;8.552;2024-02-21T02:23:10;100944.75;;;9.61;100.00
74633;BME280;63139;52.018;8.552;2024-02-21T02:25:40;100942.25;;;9.60;100.00
74633;BME280;63139;52.018;8.552;2024-02-21T02:28:08;100948.53;;;9.59;100.00
74633;BME280;63139;52.018;8.552;2024-02-21T02:30:37;100957.13;;;9.61;100.00
74633;BME280;63139;52.018;8.552;2024-02-21T02:33:05;100940.44;;;9.60;100.00
74633;BME280;63139;52.018;8.552;2024-02-21T02:35:33;100948.22;;;9.62;100.00
74633;BME280;63139;52.018;8.552;2024-02-21T02:38:02;100954.50;;;9.61;100.00
74633;BME280;63139;52.018;8.552;2024-02-21T02:40:30;100952.53;;;9.63;100.00
74633;BME280;63139;52.018;8.552;2024-02-21T02:42:59;100945.59;;;9.62;100.00
74633;BME280;63139;52.018;8.552;2024-02-21T02:45:27;100942.63;;;9.65;100.00
74633;BME280;63139;52.018;8.552;2024-02-21T02:47:55;100925.63;;;9.67;100.00
74633;BME280;63139;52.018;8.552;2024-02-21T02:50:25;100914.38;;;9.65;100.00
74633;BME280;63139;52.018;8.552;2024-02-21T02:52:53;100922.84;;;9.69;100.00
74633;BME280;63139;52.018;8.552;2024-02-21T02:55:21;100901.38;;;9.72;100.00
74633;BME280;63139;52.018;8.552;2024-02-21T02:57:49;100898.75;;;9.72;100.00
74633;BME280;63139;52.018;8.552;2024-02-21T03:00:20;100891.97;;;9.69;100.00
74633;BME280;63139;52.018;8.552;2024-02-21T03:02:49;100890.16;;;9.70;100.00
74633;BME280;63139;52.018;8.552;2024-02-21T03:05:19;100884.03;;;9.69;100.00
74633;BME280;63139;52.018;8.552;2024-02-21T03:07:48;100864.53;;;9.70;100.00
74633;BME280;63139;52.018;8.552;2024-02-21T03:10:16;100861.22;;;9.68;100.00
74633;BME280;63139;52.018;8.552;2024-02-21T03:12:45;100849.81;;;9.68;100.00
74633;BME280;63139;52.018;8.552;2024-02-21T03:15:14;100851.47;;;9.69;100.00
74633;BME280;63139;52.018;8.552;2024-02-21T03:17:43;100829.63;;;9.67;100.00
74633;BME280;63139;52.018;8.552;2024-02-21T03:20:12;100829.94;;;9.64;100.00
74633;BME280;63139;52.018;8.552;2024-02-21T03:22:41;100834.25;;;9.65;100.00
74633;BME280;63139;52.018;8.552;2024-02-21T03:25:09;100834.56;;;9.62;100.00
74633;BME280;63139;52.018;8.552;2024-02-21T03:27:38;100835.41;;;9.62;100.00
74633;BME280;63139;52.018;8.552;2024-02-21T03:30:06;100840.50;;;9.64;100.00
74633;BME280;63139;52.018;8.552;2024-02-21T03:32:34;100839.66;;;9.63;100.00
74633;BME280;63139;52.018;8.552;2024-02-21T03:35:04;100831.75;;;9.63;100.00
74633;BME280;63139;52.018;8.552;2024-02-21T03:37:32;100838.88;;;9.63;100.00
74633;BME280;63139;52.018;8.552;2024-02-21T03:40:01;100839.53;;;9.65;100.00
74633;BME280;63139;52.018;8.552;2024-02-21T03:42:29;100843.97;;;9.64;100.00
74633;BME280;63139;52.018;8.552;2024-02-21T03:44:58;100845.78;;;9.64;100.00
74633;BME280;63139;52.018;8.552;2024-02-21T03:47:26;100842.16;;;9.65;100.00
74633;BME280;63139;52.018;8.552;2024-02-21T03:49:54;100844.31;;;9.61;100.00
74633;BME280;63139;52.018;8.552;2024-02-21T03:52:23;100843.31;;;9.62;100.00
74633;BME280;63139;52.018;8.552;2024-02-21T03:54:52;100848.44;;;9.64;100.00
74633;BME280;63139;52.018;8.552;2024-02-21T03:57:21;100843.84;;;9.66;100.00
74633;BME280;63139;52.018;8.552;2024-02-21T03:59:51;100855.38;;;9.65;100.00
74633;BME280;63139;52.018;8.552;2024-02-21T04:02:18;100851.06;;;9.64;100.00
74633;BME280;63139;52.018;8.552;2024-02-21T04:04:46;100857.06;;;9.66;100.00
74633;BME280;63139;52.018;8.552;2024-02-21T04:07:15;100852.59;;;9.66;100.00
74633;BME280;63139;52.018;8.552;2024-02-21T04:09:44;100853.72;;;9.64;100.00
74633;BME280;63139;52.018;8.552;2024-02-21T04:12:12;100854.13;;;9.69;100.00
74633;BME280;63139;52.018;8.552;2024-02-21T04:14:40;100858.41;;;9.70;100.00
74633;BME280;63139;52.018;8.552;2024-02-21T04:17:11;100858.56;;;9.68;100.00
74633;BME280;63139;52.018;8.552;2024-02-21T04:19:39;100856.75;;;9.69;100.00
74633;BME280;63139;52.018;8.552;2024-02-21T04:22:08;100855.59;;;9.71;100.00
74633;BME280;63139;52.018;8.552;2024-02-21T04:24:36;100857.41;;;9.71;100.00
74633;BME280;63139;52.018;8.552;2024-02-21T04:27:05;100865.34;;;9.71;100.00
74633;BME280;63139;52.018;8.552;2024-02-21T04:29:33;100864.97;;;9.66;100.00
74633;BME280;63139;52.018;8.552;2024-02-21T04:32:01;100859.41;;;9.69;100.00
74633;BME280;63139;52.018;8.552;2024-02-21T04:34:29;100868.81;;;9.71;100.00
74633;BME280;63139;52.018;8.552;2024-02-21T04:36:58;100862.56;;;9.72;100.00
74633;BME280;63139;52.018;8.552;2024-02-21T04:39:26;100856.06;;;9.67;100.00
74633;BME280;63139;52.018;8.552;2024-02-21T04:41:54;100866.66;;;9.67;100.00
74633;BME280;63139;52.018;8.552;2024-02-21T04:44:23;100865.66;;;9.68;100.00
74633;BME280;63139;52.018;8.552;2024-02-21T04:46:51;100855.78;;;9.70;100.00
74633;BME280;63139;52.018;8.552;2024-02-21T04:49:18;100865.66;;;9.68;100.00
74633;BME280;63139;52.018;8.552;2024-02-21T04:51:47;100867.47;;;9.67;100.00
74633;BME280;63139;52.018;8.552;2024-02-21T04:54:15;100863.31;;;9.65;100.00
74633;BME280;63139;52.018;8.552;2024-02-21T04:56:43;100858.03;;;9.65;100.00
74633;BME280;63139;52.018;8.552;2024-02-21T04:59:10;100859.69;;;9.66;100.00
74633;BME280;63139;52.018;8.552;2024-02-21T05:01:41;100879.72;;;9.68;100.00
74633;BME280;63139;52.018;8.552;2024-02-21T05:04:09;100875.78;;;9.72;100.00
74633;BME280;63139;52.018;8.552;2024-02-21T05:06:37;100874.09;;;9.71;100.00
74633;BME280;63139;52.018;8.552;2024-02-21T05:09:06;100868.81;;;9.71;100.00
74633;BME280;63139;52.018;8.552;2024-02-21T05:11:35;100861.66;;;9.64;100.00
74633;BME280;63139;52.018;8.552;2024-02-21T05:14:04;100850.78;;;9.67;100.00
74633;BME280;63139;52.018;8.552;2024-02-21T05:16:32;100842.56;;;9.70;100.00
74633;BME280;63139;52.018;8.552;2024-02-21T05:19:01;100852.59;;;9.66;100.00
74633;BME280;63139;52.018;8.552;2024-02-21T05:21:31;100851.41;;;9.61;100.00
74633;BME280;63139;52.018;8.552;2024-02-21T05:23:59;100847.25;;;9.58;100.00
74633;BME280;63139;52.018;8.552;2024-02-21T05:26:27;100848.06;;;9.59;100.00
74633;BME280;63139;52.018;8.552;2024-02-21T05:28:55;100829.28;;;9.62;100.00
74633;BME280;63139;52.018;8.552;2024-02-21T05:31:26;100819.81;;;9.59;100.00
74633;BME280;63139;52.018;8.552;2024-02-21T05:34:11;100823.78;;;9.55;100.00
74633;BME280;63139;52.018;8.552;2024-02-21T05:36:39;100819.63;;;9.53;100.00
74633;BME280;63139;52.018;8.552;2024-02-21T05:39:07;100825.03;;;9.51;100.00
74633;BME280;63139;52.018;8.552;2024-02-21T05:41:35;100820.44;;;9.53;100.00
74633;BME280;63139;52.018;8.552;2024-02-21T05:44:03;100825.88;;;9.52;100.00
74633;BME280;63139;52.018;8.552;2024-02-21T05:46:31;100814.47;;;9.51;100.00
74633;BME280;63139;52.018;8.552;2024-02-21T05:48:59;100815.44;;;9.50;100.00
74633;BME280;63139;52.018;8.552;2024-02-21T05:51:32;100812.81;;;9.50;100.00
74633;BME280;63139;52.018;8.552;2024-02-21T05:54:00;100803.00;;;9.43;100.00
74633;BME280;63139;52.018;8.552;2024-02-21T05:56:28;100808.69;;;9.48;100.00
74633;BME280;63139;52.018;8.552;2024-02-21T05:58:56;100797.09;;;9.49;100.00
74633;BME280;63139;52.018;8.552;2024-02-21T06:01:25;100799.44;;;9.52;100.00
74633;BME280;63139;52.018;8.552;2024-02-21T06:03:53;100793.47;;;9.50;100.00
74633;BME280;63139;52.018;8.552;2024-02-21T06:06:21;100782.75;;;9.51;100.00
74633;BME280;63139;52.018;8.552;2024-02-21T06:08:51;100780.94;;;9.52;100.00
74633;BME280;63139;52.018;8.552;2024-02-21T06:11:18;100789.72;;;9.52;100.00
74633;BME280;63139;52.018;8.552;2024-02-21T06:13:46;100793.31;;;9.51;100.00
74633;BME280;63139;52.018;8.552;2024-02-21T06:16:14;100793.66;;;9.48;100.00
74633;BME280;63139;52.018;8.552;2024-02-21T06:18:43;100798.09;;;9.48;100.00
74633;BME280;63139;52.018;8.552;2024-02-21T06:21:11;100794.44;;;9.49;100.00
74633;BME280;63139;52.018;8.552;2024-02-21T06:23:39;100797.94;;;9.49;100.00
74633;BME280;63139;52.018;8.552;2024-02-21T06:26:08;100801.25;;;9.51;100.00
74633;BME280;63139;52.018;8.552;2024-02-21T06:28:36;100801.41;;;9.50;100.00
74633;BME280;63139;52.018;8.552;2024-02-21T06:31:04;100796.44;;;9.47;100.00
74633;BME280;63139;52.018;8.552;2024-02-21T06:33:32;100796.44;;;9.47;100.00
74633;BME280;63139;52.018;8.552;2024-02-21T06:36:01;100786.53;;;9.49;100.00
74633;BME280;63139;52.018;8.552;2024-02-21T06:38:29;100778.44;;;9.50;100.00
74633;BME280;63139;52.018;8.552;2024-02-21T06:40:57;100768.72;;;9.51;100.00
74633;BME280;63139;52.018;8.552;2024-02-21T06:43:28;100758.81;;;9.53;100.00
74633;BME280;63139;52.018;8.552;2024-02-21T06:45:57;100759.81;;;9.52;100.00
74633;BME280;63139;52.018;8.552;2024-02-21T06:48:25;100758.97;;;9.51;100.00
74633;BME280;63139;52.018;8.552;2024-02-21T06:50:53;100755.34;;;9.52;100.00
74633;BME280;63139;52.018;8.552;2024-02-21T06:53:20;100727.59;;;9.56;100.00
74633;BME280;63139;52.018;8.552;2024-02-21T06:55:48;100746.44;;;9.53;100.00
74633;BME280;63139;52.018;8.552;2024-02-21T06:58:16;100741.84;;;9.55;100.00
74633;BME280;63139;52.018;8.552;2024-02-21T07:00:46;100739.00;;;9.57;100.00
74633;BME280;63139;52.018;8.552;2024-02-21T07:03:13;100729.94;;;9.59;100.00
74633;BME280;63139;52.018;8.552;2024-02-21T07:05:41;100738.56;;;9.61;100.00
74633;BME280;63139;52.018;8.552;2024-02-21T07:08:09;100735.59;;;9.64;100.00
74633;BME280;63139;52.018;8.552;2024-02-21T07:10:37;100730.00;;;9.67;100.00
74633;BME280;63139;52.018;8.552;2024-02-21T07:13:06;100720.41;;;9.66;100.00
74633;BME280;63139;52.018;8.552;2024-02-21T07:15:34;100724.56;;;9.69;100.00
74633;BME280;63139;52.018;8.552;2024-02-21T07:18:04;100732.16;;;9.72;100.00
74633;BME280;63139;52.018;8.552;2024-02-21T07:20:32;100741.75;;;9.73;100.00
74633;BME280;63139;52.018;8.552;2024-02-21T07:23:03;100742.13;;;9.78;100.00
74633;BME280;63139;52.018;8.552;2024-02-21T07:25:31;100743.97;;;9.78;100.00
74633;BME280;63139;52.018;8.552;2024-02-21T07:27:59;100746.81;;;9.84;100.00
74633;BME280;63139;52.018;8.552;2024-02-21T07:30:28;100750.28;;;9.85;100.00
74633;BME280;63139;52.018;8.552;2024-02-21T07:32:55;100748.13;;;9.88;100.00
74633;BME280;63139;52.018;8.552;2024-02-21T07:35:25;100762.53;;;9.94;100.00
74633;BME280;63139;52.018;8.552;2024-02-21T07:37:53;100754.97;;;9.99;100.00
74633;BME280;63139;52.018;8.552;2024-02-21T07:40:21;100763.13;;;10.05;100.00
74633;BME280;63139;52.018;8.552;2024-02-21T07:42:49;100756.00;;;10.06;100.00
74633;BME280;63139;52.018;8.552;2024-02-21T07:45:18;100759.16;;;10.09;100.00
74633;BME280;63139;52.018;8.552;2024-02-21T07:47:48;100757.25;;;10.20;100.00
74633;BME280;63139;52.018;8.552;2024-02-21T07:50:17;100750.34;;;10.27;100.00
74633;BME280;63139;52.018;8.552;2024-02-21T07:52:46;100760.97;;;10.35;100.00
74633;BME280;63139;52.018;8.552;2024-02-21T07:55:14;100763.78;;;10.41;100.00
74633;BME280;63139;52.018;8.552;2024-02-21T07:57:43;100749.59;;;10.50;100.00
74633;BME280;63139;52.018;8.552;2024-02-21T08:00:11;100743.66;;;10.57;100.00
74633;BME280;63139;52.018;8.552;2024-02-21T08:02:47;100753.75;;;10.61;100.00
74633;BME280;63139;52.018;8.552;2024-02-21T08:05:16;100758.09;;;10.70;100.00
74633;BME280;63139;52.018;8.552;2024-02-21T08:07:43;100756.59;;;10.76;100.00
74633;BME280;63139;52.018;8.552;2024-02-21T08:10:14;100751.31;;;10.84;100.00
74633;BME280;63139;52.018;8.552;2024-02-21T08:12:42;100744.88;;;10.86;100.00
74633;BME280;63139;52.018;8.552;2024-02-21T08:15:10;100737.59;;;10.88;100.00
74633;BME280;63139;52.018;8.552;2024-02-21T08:17:39;100723.72;;;10.95;100.00
74633;BME280;63139;52.018;8.552;2024-02-21T08:20:07;100732.81;;;11.00;100.00
74633;BME280;63139;52.018;8.552;2024-02-21T08:22:37;100726.34;;;10.95;100.00
74633;BME280;63139;52.018;8.552;2024-02-21T08:25:06;100729.16;;;10.93;100.00
74633;BME280;63139;52.018;8.552;2024-02-21T08:27:35;100713.59;;;10.98;100.00
74633;BME280;63139;52.018;8.552;2024-02-21T08:30:03;100710.94;;;11.06;100.00
74633;BME280;63139;52.018;8.552;2024-02-21T08:32:31;100701.84;;;11.17;100.00
74633;BME280;63139;52.018;8.552;2024-02-21T08:34:59;100705.50;;;11.32;100.00
74633;BME280;63139;52.018;8.552;2024-02-21T08:37:27;100706.63;;;11.46;100.00
74633;BME280;63139;52.018;8.552;2024-02-21T08:39:55;100694.81;;;11.56;100.00
74633;BME280;63139;52.018;8.552;2024-02-21T08:42:23;100698.78;;;11.68;100.00
74633;BME280;63139;52.018;8.552;2024-02-21T08:44:52;100701.63;;;11.75;100.00
74633;BME280;63139;52.018;8.552;2024-02-21T08:47:20;100697.59;;;11.87;100.00
74633;BME280;63139;52.018;8.552;2024-02-21T08:49:48;100691.25;;;11.96;100.00
74633;BME280;63139;52.018;8.552;2024-02-21T08:52:16;100692.72;;;12.07;100.00
74633;BME280;63139;52.018;8.552;2024-02-21T08:54:44;100681.41;;;12.13;99.63
74633;BME280;63139;52.018;8.552;2024-02-21T08:57:12;100686.03;;;12.19;99.04
74633;BME280;63139;52.018;8.552;2024-02-21T08:59:40;100677.34;;;12.25;97.93
74633;BME280;63139;52.018;8.552;2024-02-21T09:02:09;100680.13;;;12.32;97.10
74633;BME280;63139;52.018;8.552;2024-02-21T09:04:37;100668.19;;;12.36;96.12
74633;BME280;63139;52.018;8.552;2024-02-21T09:07:06;100666.34;;;12.36;93.81
74633;BME280;63139;52.018;8.552;2024-02-21T09:09:33;100665.81;;;12.41;95.23
74633;BME280;63139;52.018;8.552;2024-02-21T09:12:01;100671.47;;;12.38;95.45
74633;BME280;63139;52.018;8.552;2024-02-21T09:14:32;100670.63;;;12.37;94.98
74633;BME280;63139;52.018;8.552;2024-02-21T09:17:00;100666.88;;;12.32;92.12
74633;BME280;63139;52.018;8.552;2024-02-21T09:19:29;100670.63;;;12.37;93.00
74633;BME280;63139;52.018;8.552;2024-02-21T09:21:57;100663.13;;;12.49;91.38
74633;BME280;63139;52.018;8.552;2024-02-21T09:24:25;100669.66;;;12.61;92.87
74633;BME280;63139;52.018;8.552;2024-02-21T09:26:53;100666.13;;;12.69;91.04
74633;BME280;63139;52.018;8.552;2024-02-21T09:29:21;100672.75;;;12.73;91.18
74633;BME280;63139;52.018;8.552;2024-02-21T09:31:53;100665.91;;;12.78;88.45
74633;BME280;63139;52.018;8.552;2024-02-21T09:34:21;100666.94;;;12.92;90.06
74633;BME280;63139;52.018;8.552;2024-02-21T09:36:51;100665.50;;;13.04;88.67
74633;BME280;63139;52.018;8.552;2024-02-21T09:39:19;100654.50;;;13.15;87.23
74633;BME280;63139;52.018;8.552;2024-02-21T09:41:50;100654.75;;;13.20;86.08
74633;BME280;63139;52.018;8.552;2024-02-21T09:44:22;100647.44;;;13.23;85.23
74633;BME280;63139;52.018;8.552;2024-02-21T09:46:55;100642.13;;;13.37;84.92
74633;BME280;63139;52.018;8.552;2024-02-21T09:49:30;100631.16;;;13.40;82.75
74633;BME280;63139;52.018;8.552;2024-02-21T09:52:02;100629.13;;;13.57;82.83
74633;BME280;63139;52.018;8.552;2024-02-21T09:54:32;100621.44;;;13.62;83.37
74633;BME280;63139;52.018;8.552;2024-02-21T09:57:01;100615.19;;;13.70;81.46
74633;BME280;63139;52.018;8.552;2024-02-21T09:59:31;100608.47;;;13.74;81.81
74633;BME280;63139;52.018;8.552;2024-02-21T10:02:00;100614.72;;;13.66;78.02
74633;BME280;63139;52.018;8.552;2024-02-21T10:04:29;100610.13;;;13.60;80.39
74633;BME280;63139;52.018;8.552;2024-02-21T10:06:59;100611.97;;;13.74;78.83
74633;BME280;63139;52.018;8.552;2024-02-21T10:09:28;100603.31;;;13.72;78.85
74633;BME280;63139;52.018;8.552;2024-02-21T10:12:08;100608.19;;;13.83;78.14
74633;BME280;63139;52.018;8.552;2024-02-21T10:14:37;100605.13;;;13.86;77.87
74633;BME280;63139;52.018;8.552;2024-02-21T10:17:05;100614.78;;;13.87;78.59
74633;BME280;63139;52.018;8.552;2024-02-21T10:19:37;100605.78;;;13.88;77.66
74633;BME280;63139;52.018;8.552;2024-02-21T10:22:08;100597.16;;;13.86;77.92
74633;BME280;63139;52.018;8.552;2024-02-21T10:24:38;100593.88;;;13.84;77.00
74633;BME280;63139;52.018;8.552;2024-02-21T10:27:09;100591.47;;;13.89;76.55
74633;BME280;63139;52.018;8.552;2024-02-21T10:29:40;100591.38;;;13.83;76.67
74633;BME280;63139;52.018;8.552;2024-02-21T10:32:09;100596.63;;;13.76;75.88
74633;BME280;63139;52.018;8.552;2024-02-21T10:34:40;100595.63;;;13.77;76.64
74633;BME280;63139;52.018;8.552;2024-02-21T10:37:10;100590.75;;;13.66;74.99
74633;BME280;63139;52.018;8.552;2024-02-21T10:39:40;100587.94;;;13.68;74.46
74633;BME280;63139;52.018;8.552;2024-02-21T10:42:11;100587.75;;;13.69;75.00
74633;BME280;63139;52.018;8.552;2024-02-21T10:44:40;100587.28;;;13.66;75.15
74633;BME280;63139;52.018;8.552;2024-02-21T10:47:10;100569.75;;;13.71;76.04
74633;BME280;63139;52.018;8.552;2024-02-21T10:49:41;100572.97;;;13.67;75.82
74633;BME280;63139;52.018;8.552;2024-02-21T10:52:14;100573.53;;;13.62;74.80
74633;BME280;63139;52.018;8.552;2024-02-21T10:54:48;100567.09;;;13.56;76.13
74633;BME280;63139;52.018;8.552;2024-02-21T10:57:21;100555.09;;;13.60;76.88
74633;BME280;63139;52.018;8.552;2024-02-21T10:59:50;100556.75;;;13.62;76.53
74633;BME280;63139;52.018;8.552;2024-02-21T11:02:18;100549.59;;;13.62;75.64
74633;BME280;63139;52.018;8.552;2024-02-21T11:04:47;100543.53;;;13.53;76.88
74633;BME280;63139;52.018;8.552;2024-02-21T11:07:16;100533.09;;;13.52;76.16
74633;BME280;63139;52.018;8.552;2024-02-21T11:09:52;100533.91;;;13.52;76.25
74633;BME280;63139;52.018;8.552;2024-02-21T11:12:22;100534.28;;;13.49;77.22
74633;BME280;63139;52.018;8.552;2024-02-21T11:14:52;100533.34;;;13.42;77.71
74633;BME280;63139;52.018;8.552;2024-02-21T11:17:20;100512.44;;;13.54;77.76
74633;BME280;63139;52.018;8.552;2024-02-21T11:19:51;100526.69;;;13.46;78.35
74633;BME280;63139;52.018;8.552;2024-02-21T11:22:20;100511.81;;;13.52;77.92
74633;BME280;63139;52.018;8.552;2024-02-21T11:24:49;100496.50;;;13.54;78.44
74633;BME280;63139;52.018;8.552;2024-02-21T11:27:21;100497.81;;;13.65;76.98
74633;BME280;63139;52.018;8.552;2024-02-21T11:29:55;100482.75;;;13.72;77.27
74633;BME280;63139;52.018;8.552;2024-02-21T11:32:25;100474.97;;;13.70;77.23
74633;BME280;63139;52.018;8.552;2024-02-21T11:34:54;100478.25;;;13.72;77.41
74633;BME280;63139;52.018;8.552;2024-02-21T11:37:25;100470.09;;;13.74;77.29
74633;BME280;63139;52.018;8.552;2024-02-21T11:39:54;100456.97;;;13.72;77.49
74633;BME280;63139;52.018;8.552;2024-02-21T11:42:24;100451.28;;;13.75;77.46
74633;BME280;63139;52.018;8.552;2024-02-21T11:44:53;100458.63;;;13.73;77.35
74633;BME280;63139;52.018;8.552;2024-02-21T11:47:23;100440.00;;;13.73;76.86
74633;BME280;63139;52.018;8.552;2024-02-21T11:49:52;100443.34;;;13.82;78.17
74633;BME280;63139;52.018;8.552;2024-02-21T11:52:22;100431.00;;;13.74;78.21
74633;BME280;63139;52.018;8.552;2024-02-21T11:54:53;100432.41;;;13.70;78.53
74633;BME280;63139;52.018;8.552;2024-02-21T11:57:24;100426.03;;;13.71;77.74
74633;BME280;63139;52.018;8.552;2024-02-21T11:59:52;100427.34;;;13.75;78.50
74633;BME280;63139;52.018;8.552;2024-02-21T12:02:26;100421.75;;;13.70;78.56
74633;BME280;63139;52.018;8.552;2024-02-21T12:04:55;100415.56;;;13.63;78.97
74633;BME280;63139;52.018;8.552;2024-02-21T12:07:27;100417.00;;;13.66;78.93
74633;BME280;63139;52.018;8.552;2024-02-21T12:09:58;100410.78;;;13.58;78.77
74633;BME280;63139;52.018;8.552;2024-02-21T12:12:30;100409.13;;;13.57;78.59
74633;BME280;63139;52.018;8.552;2024-02-21T12:15:06;100407.06;;;13.53;77.92
74633;BME280;63139;52.018;8.552;2024-02-21T12:17:34;100402.50;;;13.47;78.46
74633;BME280;63139;52.018;8.552;2024-02-21T12:20:03;100401.72;;;13.53;78.62
74633;BME280;63139;52.018;8.552;2024-02-21T12:22:36;100399.06;;;13.53;79.61
74633;BME280;63139;52.018;8.552;2024-02-21T12:25:15;100394.88;;;13.44;78.69
74633;BME280;63139;52.018;8.552;2024-02-21T12:27:46;100399.41;;;13.29;79.92
74633;BME280;63139;52.018;8.552;2024-02-21T12:30:15;100382.28;;;13.31;80.28
74633;BME280;63139;52.018;8.552;2024-02-21T12:32:43;100373.59;;;13.44;79.61
74633;BME280;63139;52.018;8.552;2024-02-21T12:35:12;100367.91;;;13.47;78.95
74633;BME280;63139;52.018;8.552;2024-02-21T12:37:40;100370.94;;;13.44;79.89
74633;BME280;63139;52.018;8.552;2024-02-21T12:40:09;100363.47;;;13.33;80.26
74633;BME280;63139;52.018;8.552;2024-02-21T12:42:40;100351.72;;;13.27;80.99
74633;BME280;63139;52.018;8.552;2024-02-21T12:45:09;100352.84;;;13.33;81.08
74633;BME280;63139;52.018;8.552;2024-02-21T12:47:38;100339.59;;;13.60;80.15
74633;BME280;63139;52.018;8.552;2024-02-21T12:50:07;100329.50;;;13.77;79.34
74633;BME280;63139;52.018;8.552;2024-02-21T12:52:36;100324.47;;;13.89;78.98
74633;BME280;63139;52.018;8.552;2024-02-21T12:55:05;100317.53;;;13.94;79.56
74633;BME280;63139;52.018;8.552;2024-02-21T12:57:33;100305.03;;;13.88;79.92
74633;BME280;63139;52.018;8.552;2024-02-21T13:00:01;100308.28;;;13.84;80.07